Time;durP1;ratioP1;P1;durP2;ratioP2;P2;SDS_P1;SDS_P2;PMS_P1;PMS_P2;Temp;Humidity;BMP_temperature;BMP_pressure;BME280_temperature;BME280_humidity;BME280_pressure;Samples;Min_cycle;Max_cycle;Signal;HPM_P1;HPM_P2
2021/10/03 00:01:20;;;;;;;7.50;5.40;;;20.90;42.90;;;;;;6225784;23;20420;-89
2021/10/03 00:03:53;;;;;;;12.23;4.80;;;20.80;43.00;;;;;;6224265;23;20429;-90
2021/10/03 00:06:22;;;;;;;6.13;5.07;;;20.80;43.10;;;;;;6222505;23;20413;-89
2021/10/03 00:08:52;;;;;;;7.80;4.73;;;20.70;45.20;;;;;;6223184;23;20419;-89
2021/10/03 00:11:19;;;;;;;6.97;5.57;;;20.80;45.30;;;;;;6223135;23;20420;-89
2021/10/03 00:13:46;;;;;;;9.00;5.50;;;20.90;44.20;;;;;;6226183;23;20505;-89
2021/10/03 00:16:14;;;;;;;6.40;4.90;;;20.80;42.60;;;;;;6223888;23;20416;-89
2021/10/03 00:18:41;;;;;;;5.17;4.57;;;20.80;44.00;;;;;;6223842;23;20429;-89
2021/10/03 00:21:10;;;;;;;7.10;5.70;;;20.90;44.10;;;;;;6223136;23;20891;-89
2021/10/03 00:23:37;;;;;;;5.33;4.43;;;21.00;43.60;;;;;;6222742;23;20417;-89
2021/10/03 00:26:05;;;;;;;13.90;7.10;;;20.90;43.80;;;;;;6222013;23;20459;-90
2021/10/03 00:28:32;;;;;;;8.00;6.17;;;20.30;43.00;;;;;;6221768;23;20441;-90
2021/10/03 00:31:00;;;;;;;9.13;7.07;;;20.10;44.60;;;;;;6222446;23;20394;-90
2021/10/03 00:33:27;;;;;;;9.30;5.93;;;20.20;44.30;;;;;;6222324;23;20516;-89
2021/10/03 00:35:54;;;;;;;7.10;5.23;;;20.10;44.60;;;;;;6221377;23;20394;-89
2021/10/03 00:38:23;;;;;;;11.13;6.50;;;20.10;44.60;;;;;;6220925;23;20437;-89
2021/10/03 00:40:50;;;;;;;7.83;5.90;;;20.20;44.70;;;;;;6222624;23;20413;-89
2021/10/03 00:43:17;;;;;;;9.63;6.27;;;20.20;44.50;;;;;;6222865;23;20429;-90
2021/10/03 00:45:45;;;;;;;6.63;5.30;;;20.20;44.70;;;;;;6231020;23;20520;-89
2021/10/03 00:48:12;;;;;;;7.73;5.17;;;20.30;45.90;;;;;;6224468;23;20439;-90
2021/10/03 00:50:42;;;;;;;10.03;5.80;;;20.30;44.80;;;;;;6220697;23;20904;-89
2021/10/03 00:53:09;;;;;;;10.90;5.50;;;20.30;44.80;;;;;;6220714;23;20429;-89
2021/10/03 00:55:38;;;;;;;8.70;5.23;;;20.40;44.90;;;;;;6221357;23;20413;-89
2021/10/03 00:58:06;;;;;;;8.33;6.10;;;20.50;45.00;;;;;;6220199;23;20397;-89
2021/10/03 01:00:34;;;;;;;5.10;4.57;;;20.60;42.70;;;;;;6224451;23;20413;-89
2021/10/03 01:03:02;;;;;;;8.20;6.00;;;20.50;45.00;;;;;;6230866;23;20807;-89
2021/10/03 01:05:30;;;;;;;8.97;6.00;;;20.50;42.70;;;;;;6230345;23;20420;-89
2021/10/03 01:07:57;;;;;;;7.83;5.20;;;20.40;44.90;;;;;;6232084;23;20412;-89
2021/10/03 01:10:26;;;;;;;7.07;4.97;;;20.50;45.50;;;;;;6240523;22;20446;-90
2021/10/03 01:13:02;;;;;;;7.87;5.17;;;20.50;45.00;;;;;;6241156;22;20437;-90
2021/10/03 01:15:30;;;;;;;10.43;5.80;;;20.60;45.10;;;;;;6241859;23;20407;-90
2021/10/03 01:17:58;;;;;;;7.00;5.57;;;20.90;43.50;;;;;;6242049;22;20428;-89
2021/10/03 01:20:26;;;;;;;7.87;5.80;;;20.90;44.80;;;;;;6241693;23;20457;-90
2021/10/03 01:22:54;;;;;;;14.03;6.57;;;20.70;42.40;;;;;;6233009;23;20524;-89
2021/10/03 01:25:22;;;;;;;7.57;5.33;;;20.70;44.20;;;;;;6223292;23;20895;-90
2021/10/03 01:27:50;;;;;;;9.13;6.33;;;20.80;45.30;;;;;;6224782;23;20749;-89
2021/10/03 01:30:18;;;;;;;6.63;5.20;;;20.80;43.60;;;;;;6236367;23;20424;-89
2021/10/03 01:32:46;;;;;;;11.23;5.20;;;20.80;43.40;;;;;;6240365;23;20429;-90
2021/10/03 01:35:13;;;;;;;7.63;5.30;;;20.90;44.80;;;;;;6240096;23;20419;-90
2021/10/03 01:37:40;;;;;;;9.00;6.23;;;21.00;43.60;;;;;;6240555;23;20404;-89
2021/10/03 01:40:11;;;;;;;8.63;5.60;;;20.80;42.60;;;;;;6228406;23;20459;-89
2021/10/03 01:42:38;;;;;;;8.40;5.23;;;20.90;43.30;;;;;;6223718;23;20433;-89
2021/10/03 01:45:09;;;;;;;8.60;6.20;;;20.80;44.50;;;;;;6222848;23;20417;-90
2021/10/03 01:47:56;;;;;;;13.87;5.97;;;20.80;43.50;;;;;;6225070;23;20439;-89
2021/10/03 01:50:23;;;;;;;10.33;5.87;;;20.70;43.90;;;;;;6225358;23;20475;-89
2021/10/03 01:52:50;;;;;;;7.33;5.80;;;20.40;43.50;;;;;;6222731;23;20443;-90
2021/10/03 01:55:19;;;;;;;13.20;6.17;;;20.10;44.60;;;;;;6223383;23;20526;-89
2021/10/03 01:57:46;;;;;;;16.37;6.10;;;20.10;44.40;;;;;;6222718;23;20413;-89
2021/10/03 02:00:13;;;;;;;7.80;5.03;;;20.20;44.30;;;;;;6219813;23;20437;-90
2021/10/03 02:02:40;;;;;;;8.63;5.87;;;20.10;44.90;;;;;;6222095;23;20413;-89
2021/10/03 02:05:08;;;;;;;7.33;5.50;;;20.30;44.10;;;;;;6221285;23;20420;-90
2021/10/03 02:07:35;;;;;;;13.63;6.87;;;20.00;44.50;;;;;;6220639;23;20416;-90
2021/10/03 02:10:02;;;;;;;10.47;5.23;;;20.00;44.60;;;;;;6220308;23;20412;-89
2021/10/03 02:12:31;;;;;;;7.23;5.07;;;20.10;44.60;;;;;;6220558;23;20433;-89
2021/10/03 02:14:58;;;;;;;9.67;6.47;;;20.00;45.90;;;;;;6221153;23;20880;-89
2021/10/03 02:17:25;;;;;;;7.87;5.50;;;20.00;44.50;;;;;;6221745;23;20451;-89
2021/10/03 02:19:52;;;;;;;6.57;5.10;;;20.00;45.50;;;;;;6221700;23;20522;-89
2021/10/03 02:22:19;;;;;;;11.37;6.53;;;20.00;46.00;;;;;;6220374;23;20970;-90
2021/10/03 02:24:46;;;;;;;8.27;5.93;;;20.10;44.60;;;;;;6219183;23;20397;-89
2021/10/03 02:27:13;;;;;;;12.30;7.40;;;20.00;45.40;;;;;;6220918;23;20423;-90
2021/10/03 02:29:41;;;;;;;7.50;5.30;;;19.80;45.50;;;;;;6219266;23;20401;-89
2021/10/03 02:32:09;;;;;;;6.27;5.20;;;19.60;46.60;;;;;;6219646;23;20420;-90
2021/10/03 02:34:36;;;;;;;9.57;6.43;;;19.80;46.80;;;;;;6219247;23;20397;-90
2021/10/03 02:37:03;;;;;;;12.30;6.27;;;19.90;46.10;;;;;;6218164;23;20423;-89
2021/10/03 02:39:30;;;;;;;9.60;6.87;;;19.70;46.60;;;;;;6219339;23;20444;-89
2021/10/03 02:41:57;;;;;;;9.53;6.70;;;19.50;46.00;;;;;;6219850;23;20409;-89
2021/10/03 02:44:24;;;;;;;16.70;6.13;;;19.60;46.40;;;;;;6219298;23;20474;-90
2021/10/03 02:46:53;;;;;;;6.33;5.03;;;19.60;46.80;;;;;;6218800;23;20417;-90
2021/10/03 02:49:20;;;;;;;6.10;4.97;;;19.80;47.70;;;;;;6218552;23;20401;-89
2021/10/03 02:51:48;;;;;;;8.77;7.13;;;19.40;47.50;;;;;;6221070;23;20769;-90
2021/10/03 02:54:15;;;;;;;10.20;7.67;;;19.20;46.70;;;;;;6220644;23;20914;-90
2021/10/03 02:56:42;;;;;;;11.90;7.43;;;19.60;46.90;;;;;;6194286;23;20773;-89
2021/10/03 02:59:09;;;;;;;15.63;5.90;;;19.60;46.70;;;;;;6221092;23;20719;-89
2021/10/03 03:01:36;;;;;;;8.10;5.40;;;19.60;47.20;;;;;;6221796;23;20448;-90
2021/10/03 03:04:05;;;;;;;13.27;6.03;;;19.80;47.30;;;;;;6218924;23;20448;-90
2021/10/03 03:06:32;;;;;;;8.93;6.80;;;19.80;46.70;;;;;;6219674;23;20724;-90
2021/10/03 03:08:59;;;;;;;8.83;5.67;;;19.70;45.80;;;;;;6218613;23;20504;-89
2021/10/03 03:11:26;;;;;;;9.20;6.20;;;19.80;47.20;;;;;;6218337;23;20392;-90
2021/10/03 03:13:53;;;;;;;8.50;5.97;;;19.60;46.30;;;;;;6217816;23;20519;-90
2021/10/03 03:16:20;;;;;;;10.13;5.77;;;19.30;46.80;;;;;;6231983;23;20409;-89
2021/10/03 03:18:47;;;;;;;10.57;5.53;;;19.40;48.40;;;;;;6236361;23;20396;-89
2021/10/03 03:21:15;;;;;;;8.67;5.60;;;19.60;47.30;;;;;;6228494;23;20404;-89
2021/10/03 03:23:43;;;;;;;11.50;5.83;;;19.70;47.40;;;;;;6221228;23;20413;-90
2021/10/03 03:26:10;;;;;;;8.30;6.10;;;19.70;46.20;;;;;;6219898;23;20496;-89
2021/10/03 03:28:37;;;;;;;6.90;5.20;;;19.90;46.80;;;;;;6219388;23;20494;-90
2021/10/03 03:31:04;;;;;;;8.93;7.07;;;19.80;47.00;;;;;;6217916;23;20677;-89
2021/10/03 03:33:31;;;;;;;15.50;6.80;;;19.90;46.40;;;;;;6221941;23;20432;-89
2021/10/03 03:35:58;;;;;;;8.73;5.80;;;19.60;46.40;;;;;;6220603;23;20981;-89
2021/10/03 03:38:26;;;;;;;7.80;6.20;;;19.70;47.60;;;;;;6219182;23;20416;-89
2021/10/03 03:40:53;;;;;;;7.60;6.00;;;19.70;47.10;;;;;;6220154;23;20937;-90
2021/10/03 03:43:20;;;;;;;10.10;6.20;;;19.80;46.70;;;;;;6220071;23;20425;-90
2021/10/03 03:45:47;;;;;;;8.70;6.27;;;19.90;46.60;;;;;;6218994;23;20413;-89
2021/10/03 03:48:14;;;;;;;8.97;5.90;;;19.20;46.20;;;;;;6230906;23;20401;-89
2021/10/03 03:50:43;;;;;;;7.83;6.00;;;19.10;48.40;;;;;;6221296;23;20879;-89
2021/10/03 03:53:10;;;;;;;9.30;5.83;;;19.20;48.30;;;;;;6219244;23;20442;-90
2021/10/03 03:55:39;;;;;;;11.80;6.30;;;19.10;48.00;;;;;;6217422;23;20933;-90
2021/10/03 03:58:05;;;;;;;7.97;6.07;;;19.00;47.40;;;;;;6220032;23;20444;-89
2021/10/03 04:00:32;;;;;;;8.80;6.57;;;18.90;48.10;;;;;;6220715;23;20444;-90
2021/10/03 04:02:59;;;;;;;6.80;5.43;;;19.20;48.90;;;;;;6222473;23;20440;-90
2021/10/03 04:05:26;;;;;;;9.47;6.10;;;19.40;47.10;;;;;;6218954;23;20479;-90
2021/10/03 04:07:53;;;;;;;10.03;6.27;;;19.40;47.30;;;;;;6219944;23;20435;-89
2021/10/03 04:10:20;;;;;;;19.93;6.30;;;19.40;46.00;;;;;;6220577;23;20408;-90
2021/10/03 04:12:49;;;;;;;6.83;5.47;;;19.30;47.20;;;;;;6220906;23;20433;-89
2021/10/03 04:15:16;;;;;;;8.30;5.60;;;19.00;47.80;;;;;;6220912;23;20591;-90
2021/10/03 04:17:43;;;;;;;8.37;6.13;;;19.20;47.50;;;;;;6220039;23;20416;-90
2021/10/03 04:20:11;;;;;;;6.80;5.23;;;19.00;47.10;;;;;;6219482;23;20527;-90
2021/10/03 04:22:37;;;;;;;10.63;5.13;;;19.10;46.10;;;;;;6219253;23;20512;-90
2021/10/03 04:25:06;;;;;;;6.43;5.13;;;19.20;42.90;;;;;;6219896;23;20720;-90
2021/10/03 04:27:33;;;;;;;11.33;4.87;;;19.50;44.70;;;;;;6219651;23;20409;-90
2021/10/03 04:30:01;;;;;;;6.20;4.80;;;19.70;44.30;;;;;;6222111;23;20435;-90
2021/10/03 04:32:28;;;;;;;5.77;4.80;;;19.80;45.10;;;;;;6220709;23;20715;-90
2021/10/03 04:34:55;;;;;;;6.90;5.30;;;20.00;43.20;;;;;;6220051;23;20433;-90
2021/10/03 04:37:23;;;;;;;9.27;4.73;;;20.10;44.60;;;;;;6220958;23;20396;-90
2021/10/03 04:39:50;;;;;;;5.80;4.53;;;20.30;41.90;;;;;;6221091;23;20519;-90
2021/10/03 04:42:17;;;;;;;9.67;5.87;;;20.30;42.10;;;;;;6224092;23;20437;-90
2021/10/03 04:44:44;;;;;;;7.40;5.73;;;20.00;45.50;;;;;;6221654;23;20416;-90
2021/10/03 04:47:12;;;;;;;7.07;5.23;;;19.60;44.20;;;;;;6220025;23;20386;-90
2021/10/03 04:49:39;;;;;;;6.40;5.00;;;19.50;45.60;;;;;;6218109;23;20398;-90
2021/10/03 04:52:07;;;;;;;7.30;5.43;;;19.60;46.50;;;;;;6221086;23;20443;-89
2021/10/03 04:54:34;;;;;;;8.03;6.17;;;19.70;44.30;;;;;;6219478;23;20393;-89
2021/10/03 04:57:01;;;;;;;7.00;5.13;;;19.80;42.80;;;;;;6218896;23;20440;-90
2021/10/03 04:59:28;;;;;;;11.07;6.20;;;19.60;42.80;;;;;;6218995;23;20978;-90
2021/10/03 05:01:55;;;;;;;9.07;5.40;;;18.70;45.20;;;;;;6218342;23;20468;-90
2021/10/03 05:04:24;;;;;;;7.03;5.50;;;18.70;46.50;;;;;;6217666;23;20724;-90
2021/10/03 05:06:51;;;;;;;7.47;5.23;;;18.40;46.70;;;;;;6216267;23;20492;-90
2021/10/03 05:09:18;;;;;;;6.87;5.40;;;18.40;47.50;;;;;;6219343;23;20443;-89
2021/10/03 05:11:45;;;;;;;7.07;5.23;;;18.30;48.20;;;;;;6219538;23;20432;-89
2021/10/03 05:14:12;;;;;;;10.80;5.73;;;18.80;49.30;;;;;;6219559;23;20413;-89
2021/10/03 05:16:39;;;;;;;6.50;5.10;;;19.20;46.40;;;;;;6221460;22;20880;-90
2021/10/03 05:19:06;;;;;;;6.53;5.17;;;19.50;47.50;;;;;;6219615;23;20458;-90
2021/10/03 05:21:35;;;;;;;6.93;5.30;;;19.70;46.40;;;;;;6219033;23;20440;-90
2021/10/03 05:24:04;;;;;;;9.33;5.50;;;19.70;46.50;;;;;;6218586;23;20436;-90
2021/10/03 05:26:31;;;;;;;7.13;5.20;;;19.70;44.60;;;;;;6219274;23;20443;-90
2021/10/03 05:28:58;;;;;;;12.30;5.47;;;20.00;46.00;;;;;;6219478;23;20421;-90
2021/10/03 05:31:26;;;;;;;6.77;5.57;;;20.00;46.10;;;;;;6219683;23;20400;-89
2021/10/03 05:33:52;;;;;;;7.10;5.37;;;19.80;43.50;;;;;;6218444;23;20436;-90
2021/10/03 05:36:20;;;;;;;6.43;4.97;;;19.50;45.30;;;;;;6219656;23;20443;-90
2021/10/03 05:38:48;;;;;;;8.70;4.73;;;19.60;46.40;;;;;;6220455;23;20844;-89
2021/10/03 05:41:15;;;;;;;6.00;4.80;;;19.60;46.60;;;;;;6219394;23;20444;-90
2021/10/03 05:43:42;;;;;;;6.00;4.73;;;19.70;45.70;;;;;;6231768;23;20429;-90
2021/10/03 05:46:10;;;;;;;6.73;5.43;;;19.40;44.10;;;;;;6237651;22;20397;-90
2021/10/03 05:48:37;;;;;;;6.93;5.07;;;19.40;45.40;;;;;;6218476;23;20413;-90
2021/10/03 05:51:04;;;;;;;6.60;5.43;;;19.60;44.70;;;;;;6224877;23;20401;-88
2021/10/03 05:53:31;;;;;;;7.80;5.23;;;19.70;44.80;;;;;;6225012;23;20436;-90
2021/10/03 05:55:59;;;;;;;7.60;4.90;;;19.90;43.70;;;;;;6224791;23;20455;-90
2021/10/03 05:58:26;;;;;;;7.97;5.10;;;19.70;44.30;;;;;;6219327;23;20957;-90
2021/10/03 06:00:54;;;;;;;6.50;5.47;;;19.80;45.20;;;;;;6220434;23;20498;-90
2021/10/03 06:03:21;;;;;;;11.80;6.00;;;20.00;46.60;;;;;;6225000;23;20433;-90
2021/10/03 06:05:48;;;;;;;6.73;4.73;;;20.10;43.20;;;;;;6223762;23;20852;-90
2021/10/03 06:08:15;;;;;;;7.70;6.00;;;20.00;44.60;;;;;;6225539;23;20420;-90
2021/10/03 06:10:42;;;;;;;7.50;5.30;;;19.90;44.40;;;;;;6224501;23;20890;-90
2021/10/03 06:13:10;;;;;;;9.37;5.03;;;20.10;45.90;;;;;;6220781;23;20433;-90
2021/10/03 06:15:39;;;;;;;7.13;5.00;;;20.00;44.30;;;;;;6221054;23;20420;-90
2021/10/03 06:18:06;;;;;;;8.50;5.30;;;19.90;44.40;;;;;;6221754;23;20528;-89
2021/10/03 06:20:33;;;;;;;6.73;4.90;;;20.30;44.80;;;;;;6225896;23;20908;-90
2021/10/03 06:23:00;;;;;;;12.03;5.20;;;20.70;43.60;;;;;;6220867;23;20413;-90
2021/10/03 06:25:27;;;;;;;8.50;5.00;;;21.10;43.10;;;;;;6219677;23;20724;-90
2021/10/03 06:27:54;;;;;;;10.93;5.00;;;21.30;43.80;;;;;;6220117;23;20726;-90
2021/10/03 06:31:10;;;;;;;7.17;5.57;;;21.70;40.50;;;;;;5096008;27;20531;-88
2021/10/03 06:33:39;;;;;;;8.17;5.80;;;22.00;41.60;;;;;;5094664;28;20467;-89
2021/10/03 06:36:07;;;;;;;6.13;5.00;;;23.10;40.10;;;;;;5094828;28;20442;-90
2021/10/03 06:38:34;;;;;;;4.93;4.07;;;24.10;37.50;;;;;;5086293;28;20463;-90
2021/10/03 06:41:02;;;;;;;6.43;5.00;;;24.60;36.80;;;;;;5078470;28;20438;-89
2021/10/03 06:43:30;;;;;;;6.70;5.27;;;24.90;34.30;;;;;;5076316;28;20523;-89
2021/10/03 06:45:57;;;;;;;5.87;4.63;;;24.80;34.10;;;;;;5076176;28;20439;-90
2021/10/03 06:48:25;;;;;;;9.50;6.23;;;24.90;35.30;;;;;;5084242;28;20864;-89
2021/10/03 06:50:52;;;;;;;9.10;5.10;;;24.30;36.30;;;;;;5097313;28;20821;-88
2021/10/03 06:53:19;;;;;;;7.63;4.90;;;23.50;36.00;;;;;;5098848;28;20471;-89
2021/10/03 06:55:46;;;;;;;11.73;5.33;;;23.50;37.50;;;;;;5102991;28;20538;-89
2021/10/03 06:58:13;;;;;;;6.53;4.40;;;23.40;37.80;;;;;;5094139;28;20521;-89
2021/10/03 07:00:40;;;;;;;5.13;4.20;;;23.20;39.00;;;;;;5094106;28;20442;-89
2021/10/03 07:03:07;;;;;;;9.37;5.47;;;23.20;39.10;;;;;;5093583;28;20466;-89
2021/10/03 07:05:35;;;;;;;8.90;4.60;;;23.20;38.50;;;;;;5086514;28;20505;-89
2021/10/03 07:08:03;;;;;;;6.73;4.80;;;23.40;36.90;;;;;;5074036;28;20474;-89
2021/10/03 07:10:30;;;;;;;6.90;4.43;;;23.20;37.60;;;;;;5072906;28;20490;-89
2021/10/03 07:12:57;;;;;;;4.90;4.40;;;23.00;37.90;;;;;;5072910;28;20882;-89
2021/10/03 07:15:24;;;;;;;6.63;4.47;;;23.10;36.70;;;;;;5073214;28;20467;-89
2021/10/03 07:17:51;;;;;;;7.53;4.47;;;23.10;37.30;;;;;;5072840;28;20478;-89
2021/10/03 07:20:18;;;;;;;7.67;4.87;;;23.50;37.10;;;;;;5080122;28;20484;-89
2021/10/03 07:22:47;;;;;;;10.53;4.67;;;23.50;36.60;;;;;;5087103;28;20479;-90
2021/10/03 07:25:14;;;;;;;8.53;4.63;;;23.00;37.10;;;;;;5073730;28;20529;-90
2021/10/03 07:27:41;;;;;;;6.27;4.83;;;22.70;37.50;;;;;;5073308;28;20887;-90
2021/10/03 07:30:08;;;;;;;19.23;4.60;;;22.80;38.60;;;;;;5080151;28;20509;-90
2021/10/03 07:32:35;;;;;;;4.00;3.40;;;22.80;37.70;;;;;;5092655;28;20450;-90
2021/10/03 07:35:02;;;;;;;4.97;4.17;;;22.90;39.00;;;;;;5093878;28;20450;-90
2021/10/03 07:37:29;;;;;;;5.23;4.50;;;23.10;38.00;;;;;;5104172;28;20472;-89
2021/10/03 07:39:58;;;;;;;5.70;4.70;;;23.10;36.80;;;;;;5107984;28;20998;-89
2021/10/03 07:42:25;;;;;;;6.03;5.40;;;23.10;38.50;;;;;;5091852;28;20451;-90
2021/10/03 07:44:52;;;;;;;7.90;4.37;;;23.10;37.70;;;;;;5073833;28;20817;-90
2021/10/03 07:47:19;;;;;;;8.10;4.60;;;23.10;36.70;;;;;;5066194;28;20482;-90
2021/10/03 07:49:46;;;;;;;5.77;3.97;;;23.20;36.40;;;;;;5079551;28;20501;-90
2021/10/03 07:52:13;;;;;;;8.30;5.30;;;23.10;37.30;;;;;;5077815;28;20554;-89
2021/10/03 07:54:40;;;;;;;6.17;4.90;;;23.10;39.30;;;;;;5080459;28;20538;-90
2021/10/03 07:57:08;;;;;;;5.30;4.57;;;22.80;39.70;;;;;;5072330;28;20467;-90
2021/10/03 07:59:36;;;;;;;5.50;4.47;;;22.70;39.70;;;;;;5064973;28;20487;-89
2021/10/03 08:02:03;;;;;;;6.10;4.53;;;22.40;40.50;;;;;;5077919;28;20493;-90
2021/10/03 08:04:30;;;;;;;5.30;4.50;;;22.50;40.40;;;;;;5072555;28;20509;-89
2021/10/03 08:06:57;;;;;;;9.80;5.07;;;22.60;39.60;;;;;;5058261;28;20453;-90
2021/10/03 08:09:24;;;;;;;4.37;3.60;;;22.60;39.60;;;;;;5064879;28;20904;-90
2021/10/03 08:11:51;;;;;;;6.40;4.80;;;22.50;40.60;;;;;;5078648;28;20501;-90
2021/10/03 08:14:20;;;;;;;5.87;4.37;;;22.60;40.50;;;;;;5073552;28;20448;-90
2021/10/03 08:16:47;;;;;;;13.73;4.60;;;22.60;40.00;;;;;;5058562;28;20437;-90
2021/10/03 08:19:14;;;;;;;6.80;4.40;;;22.70;40.40;;;;;;5058976;28;20440;-90
2021/10/03 08:21:41;;;;;;;7.53;4.80;;;22.50;40.00;;;;;;5063751;28;20454;-90
2021/10/03 08:24:07;;;;;;;7.07;4.90;;;22.70;39.70;;;;;;5074188;28;20546;-90
2021/10/03 08:26:35;;;;;;;7.00;4.10;;;22.90;39.20;;;;;;5058841;28;20437;-90
2021/10/03 08:29:02;;;;;;;4.53;3.57;;;23.00;39.40;;;;;;5058379;28;20480;-90
2021/10/03 08:31:31;;;;;;;5.23;3.50;;;23.10;35.80;;;;;;5059111;28;20513;-90
2021/10/03 08:33:58;;;;;;;5.03;3.10;;;23.40;34.30;;;;;;5058294;28;20530;-89
2021/10/03 08:36:25;;;;;;;3.37;2.90;;;23.40;32.90;;;;;;5059042;28;20852;-90
2021/10/03 08:38:54;;;;;;;3.90;3.20;;;23.30;32.80;;;;;;5065417;28;20929;-89
2021/10/03 08:41:22;;;;;;;22.53;3.47;;;23.20;33.00;;;;;;5072911;28;20456;-89
2021/10/03 08:43:52;;;;;;;4.47;3.17;;;23.60;33.10;;;;;;5059266;28;20464;-89
2021/10/03 08:46:23;;;;;;;4.10;3.23;;;23.90;33.30;;;;;;5058057;28;20745;-89
2021/10/03 08:48:52;;;;;;;4.83;3.40;;;24.40;33.00;;;;;;5057387;28;20846;-90
2021/10/03 08:51:19;;;;;;;4.87;3.47;;;25.00;32.00;;;;;;5061117;28;20459;-89
2021/10/03 08:53:47;;;;;;;4.77;3.03;;;25.20;33.10;;;;;;5070256;28;20472;-89
2021/10/03 08:56:14;;;;;;;4.10;3.30;;;25.30;31.50;;;;;;5057769;28;20480;-89
2021/10/03 08:58:41;;;;;;;6.73;4.50;;;25.50;33.10;;;;;;5057997;28;20449;-90
2021/10/03 09:01:10;;;;;;;6.67;4.03;;;25.40;34.60;;;;;;5057254;28;20452;-90
2021/10/03 09:03:38;;;;;;;4.70;3.63;;;25.40;34.00;;;;;;5057989;28;20476;-89
2021/10/03 09:06:06;;;;;;;4.47;3.30;;;25.20;33.30;;;;;;5056959;28;20482;-89
2021/10/03 09:08:39;;;;;;;8.63;4.20;;;25.10;33.10;;;;;;5056749;28;20937;-90
2021/10/03 09:11:08;;;;;;;6.00;4.00;;;25.10;32.80;;;;;;5057124;28;20461;-89
2021/10/03 09:13:45;;;;;;;5.73;4.20;;;24.90;34.10;;;;;;5057234;28;20503;-89
2021/10/03 09:16:14;;;;;;;4.70;4.07;;;24.90;33.40;;;;;;5057292;28;20448;-89
2021/10/03 09:18:44;;;;;;;4.97;3.87;;;24.90;34.20;;;;;;5056877;28;20564;-90
2021/10/03 09:21:34;;;;;;;6.47;3.60;;;24.90;34.00;;;;;;5065128;28;20858;-89
2021/10/03 09:24:02;;;;;;;6.00;3.97;;;25.10;33.20;;;;;;5066291;28;20517;-90
2021/10/03 09:26:30;;;;;;;3.53;3.30;;;25.10;34.30;;;;;;5057243;28;20565;-89
2021/10/03 09:28:57;;;;;;;9.73;3.63;;;25.10;33.40;;;;;;5057434;28;20448;-89
2021/10/03 09:31:24;;;;;;;5.80;3.90;;;25.00;34.10;;;;;;5075956;28;20468;-89
2021/10/03 09:33:53;;;;;;;4.13;3.57;;;25.10;34.40;;;;;;5076727;28;20502;-90
2021/10/03 09:36:24;;;;;;;7.40;3.80;;;25.00;34.30;;;;;;5076441;28;20504;-89
2021/10/03 09:38:54;;;;;;;6.20;4.00;;;25.30;34.50;;;;;;5077068;28;20451;-89
2021/10/03 09:41:23;;;;;;;4.80;3.97;;;25.20;34.40;;;;;;5076514;28;20459;-90
2021/10/03 09:43:53;;;;;;;5.40;4.00;;;25.30;34.00;;;;;;5065531;28;20499;-89
2021/10/03 09:46:42;;;;;;;4.17;3.47;;;25.50;33.80;;;;;;5061856;28;20482;-90
2021/10/03 09:49:11;;;;;;;4.37;3.90;;;25.70;34.00;;;;;;5066562;28;20401;-90
2021/10/03 09:51:41;;;;;;;4.50;3.70;;;25.80;33.40;;;;;;5075752;28;20436;-89
2021/10/03 09:54:08;;;;;;;4.70;3.80;;;25.90;33.10;;;;;;5076303;28;20475;-90
2021/10/03 09:56:36;;;;;;;6.30;3.93;;;26.00;32.70;;;;;;5076164;28;20459;-90
2021/10/03 09:59:06;;;;;;;4.57;3.47;;;26.00;33.20;;;;;;5072662;28;20452;-89
2021/10/03 10:01:34;;;;;;;4.40;3.50;;;26.10;29.80;;;;;;5061523;28;20483;-90
2021/10/03 10:04:06;;;;;;;11.87;3.63;;;26.00;30.10;;;;;;5064602;28;20456;-90
2021/10/03 10:06:34;;;;;;;2.97;2.80;;;26.10;30.50;;;;;;5061255;28;20448;-90
2021/10/03 10:09:07;;;;;;;4.90;2.90;;;26.30;29.80;;;;;;5058418;28;20490;-90
2021/10/03 10:11:39;;;;;;;7.93;3.00;;;26.30;29.40;;;;;;5058824;28;20480;-90
2021/10/03 10:14:09;;;;;;;3.53;2.90;;;26.20;29.90;;;;;;5058658;28;20483;-90
2021/10/03 10:16:47;;;;;;;18.03;2.93;;;26.20;31.00;;;;;;5056346;28;20460;-90
2021/10/03 10:19:33;;;;;;;4.10;2.90;;;26.40;29.30;;;;;;5055671;28;20463;-90
2021/10/03 10:22:41;;;;;;;7.23;3.30;;;26.40;29.40;;;;;;5055510;28;20452;-90
2021/10/03 10:25:18;;;;;;;4.00;3.13;;;26.50;29.60;;;;;;5058711;28;20525;-90
2021/10/03 10:28:04;;;;;;;3.93;2.80;;;26.80;28.50;;;;;;5055404;28;20638;-90
2021/10/03 10:30:32;;;;;;;4.43;3.33;;;27.20;28.70;;;;;;5054937;28;21026;-91
2021/10/03 10:33:11;;;;;;;9.37;3.80;;;27.40;28.80;;;;;;5054817;28;20472;-91
2021/10/03 10:35:41;;;;;;;5.67;3.10;;;27.60;29.40;;;;;;5055237;28;20926;-90
2021/10/03 10:38:19;;;;;;;4.80;3.50;;;27.80;29.70;;;;;;5054699;28;20440;-91
2021/10/03 10:40:50;;;;;;;12.83;4.50;;;28.10;30.60;;;;;;5055363;28;20539;-90
2021/10/03 10:43:44;;;;;;;6.40;4.60;;;28.20;32.30;;;;;;5054648;28;20475;-90
2021/10/03 10:46:46;;;;;;;7.23;4.13;;;28.20;31.80;;;;;;5054348;28;20455;-90
2021/10/03 10:49:46;;;;;;;6.87;4.37;;;27.70;33.80;;;;;;5070886;28;20427;-90
2021/10/03 10:52:37;;;;;;;13.80;4.27;;;27.50;34.10;;;;;;4985026;28;20491;-90
2021/10/03 10:55:33;;;;;;;9.17;4.07;;;27.50;33.60;;;;;;5056770;28;20463;-91
2021/10/03 10:58:14;;;;;;;5.60;4.03;;;27.60;33.50;;;;;;5059148;28;20474;-91
2021/10/03 11:00:58;;;;;;;6.00;3.60;;;27.50;33.60;;;;;;5057682;28;20941;-91
2021/10/03 11:04:02;;;;;;;10.07;3.80;;;27.40;33.50;;;;;;5057595;28;20479;-91
2021/10/03 11:07:20;;;;;;;7.13;4.40;;;27.50;34.00;;;;;;5059459;28;20452;-91
2021/10/03 11:10:04;;;;;;;5.97;4.33;;;27.40;35.00;;;;;;5055757;28;20452;-90
2021/10/03 11:12:34;;;;;;;6.50;4.80;;;27.30;34.90;;;;;;5062485;28;20571;-91
2021/10/03 11:15:27;;;;;;;6.63;4.30;;;27.00;34.80;;;;;;5058863;28;20444;-91
2021/10/03 11:17:54;;;;;;;8.70;5.37;;;27.00;34.40;;;;;;5063806;28;20448;-91
2021/10/03 11:20:22;;;;;;;7.83;4.77;;;27.00;34.90;;;;;;5063437;28;20471;-91
2021/10/03 11:22:49;;;;;;;7.77;4.50;;;26.80;34.80;;;;;;5061878;28;20535;-90
2021/10/03 11:25:19;;;;;;;7.27;4.50;;;26.60;35.20;;;;;;5061315;28;20452;-91
2021/10/03 11:27:56;;;;;;;9.87;4.40;;;26.30;35.20;;;;;;5061271;28;20436;-91
2021/10/03 11:30:25;;;;;;;5.60;4.27;;;26.40;36.10;;;;;;5060887;28;20538;-91
2021/10/03 11:32:53;;;;;;;5.73;4.00;;;26.40;35.30;;;;;;5061136;28;20479;-90
2021/10/03 11:35:20;;;;;;;6.30;4.47;;;26.20;35.20;;;;;;5060576;28;20442;-91
2021/10/03 11:37:51;;;;;;;4.43;3.60;;;26.60;34.70;;;;;;5063363;28;20472;-91
2021/10/03 11:40:20;;;;;;;5.40;4.23;;;26.60;35.40;;;;;;5059817;28;20531;-91
2021/10/03 11:42:50;;;;;;;6.50;4.20;;;26.70;35.50;;;;;;5059243;28;20478;-91
2021/10/03 11:45:20;;;;;;;6.60;3.83;;;26.80;35.00;;;;;;5058513;28;20448;-91
2021/10/03 11:47:50;;;;;;;8.20;4.10;;;27.10;32.60;;;;;;5058744;28;20844;-91
2021/10/03 11:50:21;;;;;;;4.33;3.73;;;27.30;32.00;;;;;;5058639;28;20529;-91
2021/10/03 11:52:49;;;;;;;10.73;3.97;;;27.30;32.50;;;;;;5061028;28;20486;-91
2021/10/03 11:55:19;;;;;;;11.63;4.10;;;27.20;31.70;;;;;;5063252;28;20502;-91
2021/10/03 11:57:47;;;;;;;5.30;4.00;;;27.30;32.00;;;;;;5073064;28;20447;-91
2021/10/03 12:00:21;;;;;;;11.07;3.70;;;27.40;31.00;;;;;;5075620;28;20444;-91
2021/10/03 12:02:51;;;;;;;10.00;4.50;;;27.40;30.50;;;;;;5066297;28;20482;-91
2021/10/03 12:05:22;;;;;;;7.20;3.70;;;27.60;31.20;;;;;;5060112;28;20429;-91
2021/10/03 12:08:05;;;;;;;4.90;3.60;;;27.60;30.10;;;;;;5057903;28;20466;-91
2021/10/03 12:10:38;;;;;;;3.40;3.10;;;27.60;30.80;;;;;;5054729;28;20537;-91
2021/10/03 12:13:19;;;;;;;8.37;3.37;;;27.70;29.80;;;;;;5057938;28;20842;-91
2021/10/03 12:15:51;;;;;;;5.27;3.30;;;27.90;29.50;;;;;;5062982;28;20448;-91
2021/10/03 12:18:44;;;;;;;10.23;4.50;;;28.10;30.00;;;;;;5067565;28;20436;-91
2021/10/03 12:21:14;;;;;;;9.77;4.00;;;28.00;29.70;;;;;;5070765;28;20428;-90
2021/10/03 12:23:50;;;;;;;14.60;4.60;;;28.00;31.90;;;;;;5073268;28;20542;-91
2021/10/03 12:26:27;;;;;;;6.47;4.40;;;27.90;33.50;;;;;;5071036;28;20445;-91
2021/10/03 12:29:13;;;;;;;5.80;4.20;;;28.00;33.10;;;;;;5071152;28;20983;-91
2021/10/03 12:31:49;;;;;;;4.20;3.30;;;28.00;32.30;;;;;;5074364;28;20463;-91
2021/10/03 12:34:38;;;;;;;4.83;4.00;;;27.80;31.50;;;;;;5071141;28;20448;-91
2021/10/03 12:37:07;;;;;;;6.83;4.40;;;27.70;32.80;;;;;;5062389;28;20547;-91
2021/10/03 12:39:37;;;;;;;7.50;4.30;;;27.70;32.90;;;;;;5067477;28;20538;-91
2021/10/03 12:42:07;;;;;;;11.73;4.77;;;27.50;32.70;;;;;;5066449;28;20454;-91
2021/10/03 12:44:34;;;;;;;7.63;4.30;;;27.40;33.30;;;;;;5065386;28;20441;-91
2021/10/03 12:47:03;;;;;;;10.93;5.10;;;27.30;29.50;;;;;;5066816;28;20459;-90
2021/10/03 12:49:30;;;;;;;12.20;4.60;;;27.30;34.70;;;;;;5067035;28;20521;-91
2021/10/03 12:51:59;;;;;;;8.77;4.93;;;27.30;35.00;;;;;;5069965;28;20475;-91
2021/10/03 12:54:26;;;;;;;8.47;5.30;;;27.30;35.90;;;;;;5070174;28;20459;-91
2021/10/03 12:56:56;;;;;;;9.60;5.50;;;27.40;36.00;;;;;;5072707;28;20448;-91
2021/10/03 12:59:25;;;;;;;6.70;5.60;;;27.40;36.80;;;;;;5071228;28;20480;-91